Time;durP1;ratioP1;P1;durP2;ratioP2;P2;SDS_P1;SDS_P2;PMS_P1;PMS_P2;Temp;Humidity;BMP_temperature;BMP_pressure;BME280_temperature;BME280_humidity;BME280_pressure;Samples;Min_cycle;Max_cycle;Signal;HPM_P1;HPM_P2
2021/11/30 00:01:17;;;;;;;7.90;7.20;;;;;;;13.35;58.70;97225.05;1818246;77;21095;-63
2021/11/30 00:03:44;;;;;;;7.55;6.85;;;;;;;13.35;58.66;97234.37;1818441;77;21135;-63
2021/11/30 00:06:10;;;;;;;8.28;7.53;;;;;;;13.34;58.61;97223.41;1821245;77;21531;-63
2021/11/30 00:08:38;;;;;;;7.67;6.97;;;;;;;13.33;58.57;97231.16;1819454;78;21025;-63
2021/11/30 00:11:07;;;;;;;7.17;6.37;;;;;;;13.33;58.58;97245.02;1811766;78;21079;-63
2021/11/30 00:13:35;;;;;;;7.30;6.70;;;;;;;13.34;58.51;97258.61;1822006;78;22335;-63
2021/11/30 00:16:02;;;;;;;7.70;7.00;;;;;;;13.32;58.49;97263.39;1816459;78;21041;-62
2021/11/30 00:18:32;;;;;;;8.10;6.30;;;;;;;13.32;58.46;97255.39;1815933;78;21064;-63
2021/11/30 00:21:01;;;;;;;8.05;7.35;;;;;;;13.31;58.44;97263.92;1819101;77;20997;-62
2021/11/30 00:23:27;;;;;;;6.65;6.05;;;;;;;13.30;58.40;97262.30;1818355;78;21104;-63
2021/11/30 00:25:55;;;;;;;6.60;5.97;;;;;;;13.29;58.37;97267.33;1831244;77;21134;-62
2021/11/30 00:28:21;;;;;;;7.25;6.55;;;;;;;13.31;58.36;97264.45;1813108;77;21043;-62
2021/11/30 00:30:49;;;;;;;6.65;6.05;;;;;;;13.31;58.31;97268.45;1829653;77;20990;-61
2021/11/30 00:33:16;;;;;;;6.78;6.17;;;;;;;13.30;58.30;97274.83;1828483;77;21056;-62
2021/11/30 00:35:42;;;;;;;7.03;6.33;;;;;;;13.30;58.28;97271.63;1822820;78;21009;-63
2021/11/30 00:38:13;;;;;;;6.33;5.72;;;;;;;13.28;58.22;97275.03;1820359;78;21081;-63
2021/11/30 00:40:39;;;;;;;6.50;5.90;;;;;;;13.28;58.19;97271.57;1809872;77;21049;-63
2021/11/30 00:43:07;;;;;;;6.25;5.65;;;;;;;13.28;58.17;97271.03;1804228;77;21049;-65
2021/11/30 00:45:48;;;;;;;6.17;5.67;;;;;;;13.27;58.17;97273.94;1800321;77;21065;-62
2021/11/30 00:48:10;;;;;;;6.80;6.20;;;;;;;13.27;58.12;97281.94;1801868;78;21038;-66
2021/11/30 00:50:39;;;;;;;6.83;6.12;;;;;;;13.27;58.11;97288.61;1820071;78;21294;-63
2021/11/30 00:53:06;;;;;;;6.90;6.22;;;;;;;13.26;58.07;97293.67;1822283;78;21026;-65
2021/11/30 00:55:32;;;;;;;6.20;5.60;;;;;;;13.25;58.04;97286.21;1805161;77;21500;-63
2021/11/30 00:57:59;;;;;;;6.15;5.60;;;;;;;13.24;57.99;97287.25;1818855;78;21065;-63
2021/11/30 01:00:25;;;;;;;5.67;5.15;;;;;;;13.25;58.00;97290.71;1799114;77;21057;-63
2021/11/30 01:02:52;;;;;;;5.83;5.33;;;;;;;13.23;57.96;97288.31;1811346;78;21086;-62
2021/11/30 01:05:18;;;;;;;5.78;5.28;;;;;;;13.24;57.94;97295.78;1799066;77;21004;-62
2021/11/30 01:07:45;;;;;;;5.92;5.42;;;;;;;13.24;57.92;97290.45;1815047;78;21523;-63
2021/11/30 01:10:14;;;;;;;5.70;5.20;;;;;;;13.23;57.89;97294.16;1809129;78;21543;-61
2021/11/30 01:12:43;;;;;;;5.85;5.35;;;;;;;13.22;57.86;97290.69;1804488;78;20962;-62
2021/11/30 01:15:15;;;;;;;5.67;5.15;;;;;;;13.22;57.82;97303.22;1818116;78;21147;-62
2021/11/30 01:17:41;;;;;;;5.50;5.00;;;;;;;13.21;57.80;97304.25;1810568;77;21461;-62
2021/11/30 01:20:09;;;;;;;5.95;5.35;;;;;;;13.20;57.76;97306.66;1814023;77;21557;-62
2021/11/30 01:22:36;;;;;;;5.70;5.17;;;;;;;13.20;57.73;97302.66;1816911;78;21478;-61
2021/11/30 01:25:04;;;;;;;5.40;4.90;;;;;;;13.20;57.70;97286.66;1801137;78;21512;-63
2021/11/30 01:27:31;;;;;;;5.97;5.37;;;;;;;13.20;57.67;97303.98;1802863;77;21770;-62
2021/11/30 01:29:57;;;;;;;4.80;4.40;;;;;;;13.18;57.67;97290.90;1814089;78;21525;-62
2021/11/30 01:32:24;;;;;;;5.53;5.03;;;;;;;13.18;57.64;97298.89;1822667;77;20994;-61
2021/11/30 01:34:51;;;;;;;5.50;5.00;;;;;;;13.18;57.61;97300.23;1819062;77;21037;-62
2021/11/30 01:37:17;;;;;;;5.42;4.95;;;;;;;13.17;57.57;97301.27;1812502;77;21111;-62
2021/11/30 01:39:46;;;;;;;4.90;4.42;;;;;;;13.18;57.54;97296.23;1815168;78;21894;-62
2021/11/30 01:42:14;;;;;;;5.22;4.83;;;;;;;13.17;57.51;97309.27;1823114;78;21072;-63
2021/11/30 01:47:40;;;;;;;5.70;5.20;;;;;;;13.16;57.50;97313.00;1814375;77;21462;-62
2021/11/30 01:49:51;;;;;;;5.20;4.70;;;;;;;13.15;57.48;97308.20;1821114;77;21559;-62
2021/11/30 01:52:18;;;;;;;4.67;4.28;;;;;;;13.13;57.46;97324.96;1828589;77;21847;-63
2021/11/30 01:54:44;;;;;;;5.05;4.55;;;;;;;13.14;57.43;97303.91;1821971;78;22049;-62
2021/11/30 01:57:15;;;;;;;4.87;4.47;;;;;;;13.11;57.40;97307.05;1808052;77;21037;-62
2021/11/30 01:59:42;;;;;;;4.70;4.30;;;;;;;13.13;57.39;97302.30;1801456;78;21188;-62
2021/11/30 02:02:09;;;;;;;4.47;4.08;;;;;;;13.14;57.36;97312.44;1825689;78;21060;-62
2021/11/30 02:04:36;;;;;;;5.10;4.60;;;;;;;13.12;57.33;97315.34;1826431;78;21120;-62
2021/11/30 02:07:04;;;;;;;4.42;4.08;;;;;;;13.12;57.29;97317.20;1820771;77;21028;-63
2021/11/30 02:09:32;;;;;;;4.53;4.12;;;;;;;13.11;57.29;97320.38;1823483;77;20962;-62
2021/11/30 02:11:58;;;;;;;5.03;4.53;;;;;;;13.11;57.25;97328.38;1824475;78;21056;-62
2021/11/30 02:14:27;;;;;;;4.33;3.98;;;;;;;13.10;57.25;97332.10;1826367;77;21014;-64
2021/11/30 02:16:54;;;;;;;4.47;4.08;;;;;;;13.10;57.24;97342.77;1816039;77;21139;-61
2021/11/30 02:19:20;;;;;;;4.58;4.15;;;;;;;13.10;57.20;97344.62;1825179;77;21035;-62
2021/11/30 02:21:47;;;;;;;4.65;4.03;;;;;;;13.09;57.21;97348.33;1829236;78;21009;-62
2021/11/30 02:24:13;;;;;;;4.80;4.40;;;;;;;13.08;57.14;97350.20;1829723;77;20982;-63
2021/11/30 02:26:41;;;;;;;4.15;3.75;;;;;;;13.08;57.14;97343.53;1821256;77;21017;-63
2021/11/30 02:29:08;;;;;;;4.60;4.20;;;;;;;13.09;57.11;97347.00;1825909;77;21130;-62
2021/11/30 02:31:41;;;;;;;4.37;3.98;;;;;;;13.07;57.10;97348.56;1824423;78;21048;-62
2021/11/30 02:34:07;;;;;;;4.60;4.20;;;;;;;13.07;57.07;97355.77;1824064;78;20977;-62
2021/11/30 02:36:48;;;;;;;4.28;3.87;;;;;;;13.06;57.05;97337.64;1822445;78;20992;-62
2021/11/30 02:39:07;;;;;;;4.37;3.98;;;;;;;13.06;57.05;97348.30;1820898;77;21529;-62
2021/11/30 02:41:35;;;;;;;3.90;3.60;;;;;;;13.06;57.01;97346.17;1817699;78;20982;-61
2021/11/30 02:44:04;;;;;;;4.05;3.75;;;;;;;13.05;56.99;97367.20;1818823;78;20962;-62
2021/11/30 02:46:41;;;;;;;3.87;3.58;;;;;;;13.04;56.99;97349.07;1821617;77;21493;-62
2021/11/30 02:49:11;;;;;;;4.28;3.87;;;;;;;13.05;56.98;97368.52;1825276;77;21033;-62
2021/11/30 02:51:41;;;;;;;4.10;3.70;;;;;;;13.04;56.96;97340.24;1821030;78;20990;-61
2021/11/30 02:54:11;;;;;;;3.72;3.42;;;;;;;13.02;56.94;97360.50;1824658;77;21105;-61
2021/11/30 02:56:54;;;;;;;3.98;3.58;;;;;;;13.02;56.91;97351.17;1812471;78;21046;-62
2021/11/30 02:59:22;;;;;;;4.08;3.67;;;;;;;13.03;56.90;97371.42;1809001;78;20966;-62
2021/11/30 03:02:16;;;;;;;4.17;3.77;;;;;;;13.02;56.89;97373.00;1809080;78;21061;-61
2021/11/30 03:04:48;;;;;;;4.00;3.60;;;;;;;13.01;56.89;97394.84;1816145;78;21572;-62
2021/11/30 03:07:21;;;;;;;3.67;3.37;;;;;;;12.98;56.88;97369.50;1804225;77;21485;-62
2021/11/30 03:09:48;;;;;;;3.55;3.25;;;;;;;12.97;56.88;97367.87;1825364;78;20975;-62
2021/11/30 03:12:14;;;;;;;3.98;3.58;;;;;;;12.97;56.88;97367.87;1820409;78;21589;-63
2021/11/30 03:14:41;;;;;;;3.80;3.40;;;;;;;12.97;56.85;97386.52;1824619;78;21100;-62
2021/11/30 03:17:08;;;;;;;3.75;3.45;;;;;;;12.98;56.83;97387.35;1817906;77;21053;-61
2021/11/30 03:19:35;;;;;;;4.08;3.45;;;;;;;12.98;56.78;97373.50;1821347;78;21188;-63
2021/11/30 03:22:03;;;;;;;3.42;3.12;;;;;;;12.98;56.72;97361.50;1823053;78;20978;-62
2021/11/30 03:24:31;;;;;;;3.30;3.00;;;;;;;12.98;56.71;97364.70;1825159;78;21017;-61
2021/11/30 03:26:58;;;;;;;3.65;3.35;;;;;;;12.98;56.70;97376.16;1824717;77;21012;-63
2021/11/30 03:29:25;;;;;;;3.65;3.35;;;;;;;12.98;56.64;97366.03;1819454;78;21078;-62
2021/11/30 03:34:36;;;;;;;3.22;2.90;;;;;;;12.97;56.59;97361.73;1811948;77;21060;-62
2021/11/30 03:37:06;;;;;;;3.65;3.35;;;;;;;12.96;56.59;97363.60;1815908;77;20997;-62
2021/11/30 03:39:34;;;;;;;3.70;3.40;;;;;;;12.96;56.59;97364.11;1763861;81;21060;-62
2021/11/30 03:42:01;;;;;;;3.55;3.25;;;;;;;12.96;56.55;97377.43;1774789;80;21081;-62
2021/11/30 03:44:28;;;;;;;3.85;3.55;;;;;;;12.96;56.58;97386.76;1777883;80;21195;-62
2021/11/30 03:46:55;;;;;;;3.83;3.40;;;;;;;12.94;56.53;97395.02;1773633;80;21026;-62
2021/11/30 03:49:22;;;;;;;4.00;3.60;;;;;;;12.95;56.51;97385.16;1758119;80;21073;-62
2021/11/30 03:51:48;;;;;;;3.67;3.37;;;;;;;12.95;56.47;97385.16;1764191;80;22104;-62
2021/11/30 03:54:16;;;;;;;3.95;3.45;;;;;;;12.94;56.45;97392.35;1765781;80;21089;-62
2021/11/30 03:56:42;;;;;;;3.33;3.02;;;;;;;12.95;56.42;97400.62;1763170;81;21032;-61
2021/11/30 03:59:11;;;;;;;4.03;3.62;;;;;;;12.95;56.38;97399.81;1764742;80;21076;-61
2021/11/30 04:01:37;;;;;;;3.80;3.50;;;;;;;12.94;56.38;97390.19;1764719;80;21052;-61
2021/11/30 04:04:21;;;;;;;3.60;3.30;;;;;;;12.92;56.37;97384.30;1757513;81;21063;-61
2021/11/30 04:06:50;;;;;;;3.72;3.27;;;;;;;12.93;56.36;97397.38;1761826;81;21087;-62
2021/11/30 04:09:17;;;;;;;3.50;3.20;;;;;;;12.91;56.34;97383.49;1759802;80;21164;-61
2021/11/30 04:11:45;;;;;;;3.40;3.10;;;;;;;12.92;56.33;97390.95;1763802;80;21075;-62
2021/11/30 04:14:12;;;;;;;4.10;3.70;;;;;;;12.90;56.32;97403.21;1776994;80;21029;-61
2021/11/30 04:16:39;;;;;;;3.70;3.40;;;;;;;12.90;56.33;97409.87;1775102;80;21763;-61
2021/11/30 04:19:05;;;;;;;3.60;3.30;;;;;;;12.90;56.29;97415.20;1763071;81;21079;-61
2021/11/30 04:21:32;;;;;;;3.83;3.52;;;;;;;12.90;56.31;97413.04;1762776;81;21128;-62
2021/11/30 04:23:58;;;;;;;3.47;3.17;;;;;;;12.90;56.28;97422.37;1763267;81;21004;-62
2021/11/30 04:26:25;;;;;;;3.45;3.15;;;;;;;12.90;56.27;97418.37;1775383;80;21031;-61
2021/11/30 04:28:51;;;;;;;3.27;3.02;;;;;;;12.90;56.22;97433.03;1765356;80;21843;-61
2021/11/30 04:31:18;;;;;;;3.70;3.40;;;;;;;12.89;56.20;97442.08;1769761;80;21070;-62
2021/11/30 04:33:45;;;;;;;3.67;3.37;;;;;;;12.90;56.18;97442.35;1781104;80;21145;-62
2021/11/30 04:36:12;;;;;;;3.58;2.80;;;;;;;12.89;56.15;97447.41;1773549;80;21056;-62
2021/11/30 04:38:40;;;;;;;3.55;3.25;;;;;;;12.88;56.14;97445.25;1786779;79;21031;-62
2021/11/30 04:41:07;;;;;;;3.58;3.27;;;;;;;12.87;56.14;97439.66;1795998;79;21004;-62
2021/11/30 04:43:37;;;;;;;3.42;3.12;;;;;;;12.88;56.12;97456.44;1762216;80;21018;-61
2021/11/30 04:46:15;;;;;;;3.17;2.87;;;;;;;12.87;56.10;97456.97;1769142;80;21149;-62
2021/11/30 04:48:40;;;;;;;3.30;3.00;;;;;;;12.87;56.10;97452.98;1768112;80;21077;-61
2021/11/30 04:51:10;;;;;;;3.20;2.90;;;;;;;12.87;56.07;97450.84;1778253;79;21032;-62
2021/11/30 04:53:35;;;;;;;3.33;3.02;;;;;;;12.87;56.07;97454.84;1768813;80;21082;-61
2021/11/30 04:56:03;;;;;;;3.40;3.10;;;;;;;12.86;56.03;97463.33;1780087;80;21061;-61
2021/11/30 04:58:31;;;;;;;3.52;3.22;;;;;;;12.86;56.00;97473.19;1768348;79;21089;-62
2021/11/30 05:00:57;;;;;;;3.20;2.90;;;;;;;12.86;55.99;97485.18;1775231;80;21033;-61
2021/11/30 05:03:24;;;;;;;3.70;3.25;;;;;;;12.84;55.97;97469.95;1772593;79;21029;-61
2021/11/30 05:05:50;;;;;;;3.33;3.02;;;;;;;12.84;55.95;97475.28;1774328;80;21473;-62
2021/11/30 05:08:17;;;;;;;3.65;3.22;;;;;;;12.83;55.95;97482.48;1783539;80;21077;-62
2021/11/30 05:10:44;;;;;;;3.40;3.12;;;;;;;12.83;55.96;97479.81;1767185;80;21141;-62
2021/11/30 05:13:10;;;;;;;3.58;3.25;;;;;;;12.83;55.94;97492.34;1779946;80;21038;-61
2021/11/30 05:15:37;;;;;;;3.40;3.10;;;;;;;12.83;55.94;97501.13;1759195;80;21041;-62
2021/11/30 05:18:04;;;;;;;4.05;3.20;;;;;;;12.81;55.92;97497.89;1783498;80;21006;-62
2021/11/30 05:20:30;;;;;;;3.87;3.55;;;;;;;12.82;55.91;97500.03;1780446;80;21045;-63
2021/11/30 05:22:57;;;;;;;3.65;3.35;;;;;;;12.81;55.90;97523.20;1775729;80;21807;-63
2021/11/30 05:25:24;;;;;;;3.33;3.02;;;;;;;12.81;55.89;97526.41;1782297;80;21506;-62
2021/11/30 05:27:51;;;;;;;3.40;3.10;;;;;;;12.80;55.89;97517.58;1777312;79;21029;-64
2021/11/30 05:30:20;;;;;;;3.37;3.08;;;;;;;12.80;55.85;97526.91;1773246;79;20994;-62
2021/11/30 05:32:48;;;;;;;3.30;3.00;;;;;;;12.79;55.85;97536.77;1774080;80;21576;-62
2021/11/30 05:35:14;;;;;;;3.58;3.02;;;;;;;12.79;55.85;97535.95;1755880;80;21219;-62
2021/11/30 05:37:41;;;;;;;3.02;2.80;;;;;;;12.79;55.85;97553.28;1778747;80;21113;-62
2021/11/30 05:40:10;;;;;;;3.40;3.10;;;;;;;12.79;55.84;97556.74;1756117;80;21077;-62
2021/11/30 05:42:37;;;;;;;3.17;2.87;;;;;;;12.78;55.81;97551.11;1771988;80;21010;-62
2021/11/30 05:45:05;;;;;;;3.62;3.27;;;;;;;12.79;55.79;97565.27;1765794;80;21010;-62
2021/11/30 05:47:34;;;;;;;3.25;2.95;;;;;;;12.77;55.79;97564.16;1761749;80;21152;-62
2021/11/30 05:50:01;;;;;;;3.33;3.02;;;;;;;12.78;55.79;97562.30;1775135;79;21560;-63
2021/11/30 05:52:28;;;;;;;3.08;2.80;;;;;;;12.77;55.79;97562.83;1776462;80;21029;-62
2021/11/30 05:54:55;;;;;;;2.83;2.62;;;;;;;12.77;55.78;97572.16;1772785;80;21082;-61
2021/11/30 05:57:23;;;;;;;3.42;3.00;;;;;;;12.77;55.75;97586.01;1761974;79;21041;-61
2021/11/30 05:59:50;;;;;;;3.20;2.90;;;;;;;12.76;55.77;97597.16;1758026;79;21100;-62
2021/11/30 06:02:19;;;;;;;3.37;2.87;;;;;;;12.76;55.74;97624.34;1762920;79;21561;-62
2021/11/30 06:04:45;;;;;;;3.08;2.72;;;;;;;12.76;55.78;97629.66;1771697;80;21086;-62
2021/11/30 06:07:12;;;;;;;2.80;2.60;;;;;;;12.76;55.72;97633.66;1775339;80;21053;-62
2021/11/30 06:09:39;;;;;;;2.95;2.65;;;;;;;12.76;55.74;97619.01;1774837;79;21044;-63
2021/11/30 06:12:07;;;;;;;2.75;2.55;;;;;;;12.76;55.71;97635.00;1771005;80;21108;-62
2021/11/30 06:14:34;;;;;;;3.08;2.77;;;;;;;12.76;55.71;97633.66;1770735;79;21039;-63
2021/11/30 06:17:00;;;;;;;2.95;2.62;;;;;;;12.75;55.67;97643.52;1767652;80;21294;-63
2021/11/30 06:19:27;;;;;;;3.08;2.77;;;;;;;12.75;55.66;97638.19;1776672;80;21775;-62
2021/11/30 06:21:54;;;;;;;2.90;2.60;;;;;;;12.75;55.64;97638.72;1778087;80;21514;-62
2021/11/30 06:24:20;;;;;;;3.20;2.90;;;;;;;12.75;55.64;97644.05;1766309;79;21213;-62
2021/11/30 06:26:49;;;;;;;3.00;2.70;;;;;;;12.75;55.63;97647.52;1765218;80;21022;-61
2021/11/30 06:29:16;;;;;;;2.95;2.60;;;;;;;12.75;55.59;97644.84;1777344;80;21597;-63
2021/11/30 06:31:43;;;;;;;2.67;2.47;;;;;;;12.74;55.59;97656.53;1778019;80;21560;-63
2021/11/30 06:34:10;;;;;;;3.05;2.72;;;;;;;12.74;55.56;97648.55;1769753;79;21493;-64
2021/11/30 06:36:37;;;;;;;2.80;2.58;;;;;;;12.74;55.56;97659.20;1756614;79;21977;-64
2021/11/30 06:39:04;;;;;;;2.33;2.12;;;;;;;12.73;55.55;97656.27;1765804;80;21514;-63
2021/11/30 06:41:31;;;;;;;2.85;2.60;;;;;;;12.73;55.52;97660.26;1757005;80;21498;-63
2021/11/30 06:43:57;;;;;;;2.50;2.27;;;;;;;12.73;55.52;97660.26;1765183;79;21073;-63
2021/11/30 06:46:24;;;;;;;2.60;2.40;;;;;;;12.73;55.51;97670.91;1777612;80;21041;-64
2021/11/30 06:48:51;;;;;;;2.75;2.55;;;;;;;12.73;55.49;97660.79;1777816;80;21139;-63
2021/11/30 06:52:38;;;;;;;2.25;2.05;;;;;;;12.76;55.47;97657.11;1866974;76;28127;-62
2021/11/30 06:55:08;;;;;;;2.55;2.35;;;;;;;12.70;55.43;97659.91;1826013;77;21075;-64
2021/11/30 06:57:35;;;;;;;2.62;2.30;;;;;;;12.71;55.45;97674.34;1825263;77;21073;-63
2021/11/30 07:00:05;;;;;;;2.35;2.15;;;;;;;12.72;55.42;97683.93;1825436;78;21018;-65
2021/11/30 07:02:35;;;;;;;2.40;2.20;;;;;;;12.72;55.39;97685.27;1826621;77;21593;-64
2021/11/30 07:05:16;;;;;;;2.52;2.33;;;;;;;12.73;55.40;97686.09;1830944;77;21049;-63
2021/11/30 07:07:38;;;;;;;2.50;2.30;;;;;;;12.73;55.35;97663.45;1807045;77;21478;-62
2021/11/30 07:12:50;;;;;;;2.00;1.90;;;;;;;12.73;55.33;97685.56;1822513;77;20986;-64
2021/11/30 07:15:15;;;;;;;2.45;2.25;;;;;;;12.72;55.29;97687.92;1830631;77;21560;-63
2021/11/30 07:17:43;;;;;;;2.70;2.50;;;;;;;12.72;55.29;97682.60;1812388;77;21046;-64
2021/11/30 07:20:11;;;;;;;2.10;1.87;;;;;;;12.72;55.25;97670.61;1823126;77;21517;-66
2021/11/30 07:22:37;;;;;;;2.75;2.02;;;;;;;12.73;55.23;97680.77;1819424;77;21029;-64
2021/11/30 07:25:05;;;;;;;2.25;1.87;;;;;;;12.72;55.20;97662.63;1810156;78;20990;-64
2021/11/30 07:27:31;;;;;;;1.87;1.77;;;;;;;12.73;55.19;97670.91;1818900;78;21478;-64
2021/11/30 07:29:58;;;;;;;2.05;1.85;;;;;;;12.73;55.19;97685.56;1819637;77;21525;-63
2021/11/30 07:32:24;;;;;;;2.15;1.95;;;;;;;12.74;55.15;97679.18;1815336;77;22145;-66
2021/11/30 07:34:51;;;;;;;2.20;1.95;;;;;;;12.75;55.15;97665.36;1826198;78;21204;-65
2021/11/30 07:37:18;;;;;;;1.80;1.70;;;;;;;12.75;55.11;97674.16;1826309;78;21278;-64
2021/11/30 07:39:44;;;;;;;2.40;2.20;;;;;;;12.75;55.10;97692.00;1819295;77;21046;-64
2021/11/30 07:42:11;;;;;;;2.20;2.08;;;;;;;12.76;55.09;97678.95;1817666;77;21555;-64
2021/11/30 07:44:37;;;;;;;3.15;2.10;;;;;;;12.76;55.04;97680.28;1810504;78;21045;-63
2021/11/30 07:47:04;;;;;;;2.55;2.35;;;;;;;12.75;55.06;97671.48;1817363;78;21011;-64
2021/11/30 07:49:32;;;;;;;2.12;1.92;;;;;;;12.76;55.06;97699.73;1815916;77;21048;-62
2021/11/30 07:51:59;;;;;;;2.05;1.85;;;;;;;12.76;55.03;97703.73;1815157;77;21003;-65
2021/11/30 07:54:25;;;;;;;2.30;2.10;;;;;;;12.76;55.01;97705.07;1812444;78;21538;-61
2021/11/30 07:56:52;;;;;;;2.20;2.00;;;;;;;12.76;55.01;97697.61;1808042;78;21053;-61
2021/11/30 07:59:19;;;;;;;2.47;2.20;;;;;;;12.76;55.04;97705.07;1814255;78;21775;-61
2021/11/30 08:01:46;;;;;;;1.72;1.62;;;;;;;12.77;55.66;97660.61;1798261;79;20990;-61
2021/11/30 08:04:13;;;;;;;2.90;1.67;;;;;;;12.78;56.10;97675.53;1802511;79;21022;-60
2021/11/30 08:06:39;;;;;;;2.47;1.75;;;;;;;12.79;56.23;97666.52;1800682;78;21056;-61
2021/11/30 08:09:08;;;;;;;1.82;1.72;;;;;;;12.80;56.27;97642.80;1812739;78;21006;-59
2021/11/30 08:11:35;;;;;;;3.00;1.98;;;;;;;12.81;56.27;97657.77;1820914;78;21159;-60
2021/11/30 08:14:01;;;;;;;2.27;2.05;;;;;;;12.83;56.25;97660.20;1815353;78;21037;-61
2021/11/30 08:16:28;;;;;;;3.95;2.27;;;;;;;12.82;56.20;97686.02;1810972;79;21006;-61
2021/11/30 08:18:54;;;;;;;3.75;2.60;;;;;;;12.84;56.08;97679.13;1804819;78;22065;-62
2021/11/30 08:21:21;;;;;;;2.98;2.35;;;;;;;12.86;56.00;97667.70;1822042;78;21580;-61
2021/11/30 08:23:47;;;;;;;3.62;2.40;;;;;;;12.86;55.95;97664.52;1808500;79;21120;-60
2021/11/30 08:26:14;;;;;;;2.47;2.22;;;;;;;12.88;55.87;97670.95;1806597;78;21034;-61
2021/11/30 08:28:40;;;;;;;4.37;2.30;;;;;;;12.89;55.79;97667.25;1809049;78;20995;-61
2021/11/30 08:31:07;;;;;;;4.20;2.47;;;;;;;12.89;55.73;97673.39;1802479;78;21025;-62
2021/11/30 08:33:34;;;;;;;3.92;2.47;;;;;;;12.90;55.68;97643.05;1810709;78;21022;-64
2021/11/30 08:36:00;;;;;;;2.72;2.40;;;;;;;12.93;55.66;97661.21;1808359;78;21108;-61
2021/11/30 08:38:27;;;;;;;5.53;2.33;;;;;;;12.96;55.59;97647.93;1795876;78;21033;-62
2021/11/30 08:40:55;;;;;;;3.62;2.87;;;;;;;12.99;55.53;97656.80;1766547;80;21052;-62
2021/11/30 08:43:22;;;;;;;3.85;2.35;;;;;;;13.02;55.46;97656.34;1725407;81;21010;-60
2021/11/30 08:45:49;;;;;;;2.98;2.17;;;;;;;13.05;55.41;97665.72;1750540;81;21039;-60
2021/11/30 08:48:16;;;;;;;2.45;2.10;;;;;;;13.07;55.32;97655.09;1754573;79;21168;-59
2021/11/30 08:50:43;;;;;;;3.02;2.83;;;;;;;13.10;55.29;97665.30;1736285;81;21093;-61
2021/11/30 08:53:09;;;;;;;3.05;2.35;;;;;;;13.11;55.23;97666.91;1750834;81;21077;-61
2021/11/30 08:55:36;;;;;;;2.80;2.27;;;;;;;13.13;55.15;97676.84;1755428;81;21532;-60
2021/11/30 08:58:04;;;;;;;2.92;2.42;;;;;;;13.14;55.08;97673.11;1745742;81;21042;-60
2021/11/30 09:00:30;;;;;;;4.08;2.72;;;;;;;13.15;54.96;97669.42;1806781;78;21228;-60
2021/11/30 09:02:58;;;;;;;4.42;2.67;;;;;;;13.16;54.86;97667.55;1813736;78;21065;-60
2021/11/30 09:05:24;;;;;;;3.92;2.83;;;;;;;13.17;54.79;97672.66;1813083;77;21062;-59
2021/11/30 09:07:51;;;;;;;4.20;2.87;;;;;;;13.16;54.75;97672.88;1806784;78;21660;-58
2021/11/30 09:10:19;;;;;;;4.45;2.95;;;;;;;13.16;54.69;97667.02;1802081;77;21073;-60
2021/11/30 09:12:45;;;;;;;8.85;2.87;;;;;;;13.18;54.70;97680.92;1804133;77;21110;-60
2021/11/30 09:15:12;;;;;;;4.80;2.50;;;;;;;13.18;54.69;97678.26;1803646;77;21041;-60
2021/11/30 09:17:38;;;;;;;4.20;2.22;;;;;;;13.18;54.64;97673.46;1744586;81;21014;-60
2021/11/30 09:20:07;;;;;;;3.08;2.37;;;;;;;13.19;54.54;97655.07;1743526;81;21045;-59
2021/11/30 09:22:34;;;;;;;6.20;3.00;;;;;;;13.18;54.46;97660.93;1736870;82;21003;-59
2021/11/30 09:25:03;;;;;;;3.85;3.00;;;;;;;13.17;54.38;97650.00;1742568;81;21793;-59
2021/11/30 09:27:29;;;;;;;3.20;2.60;;;;;;;13.17;54.33;97657.99;1761928;80;21096;-60
2021/11/30 09:29:55;;;;;;;5.67;2.85;;;;;;;13.16;54.26;97663.02;1760579;80;21084;-59
2021/11/30 09:32:26;;;;;;;3.27;2.52;;;;;;;13.16;54.20;97656.36;1766010;79;21022;-58
2021/11/30 09:34:50;;;;;;;3.47;3.05;;;;;;;13.15;54.16;97655.25;1753643;81;21610;-61
2021/11/30 09:37:16;;;;;;;4.87;2.70;;;;;;;13.15;54.13;97645.42;1760917;81;21660;-60
2021/11/30 09:39:43;;;;;;;6.08;3.27;;;;;;;13.14;54.12;97659.78;1752914;81;21073;-60
2021/11/30 09:42:12;;;;;;;5.83;3.05;;;;;;;13.13;54.11;97659.52;1753328;81;21090;-61
2021/11/30 09:44:41;;;;;;;3.00;2.50;;;;;;;13.13;54.09;97654.19;1758540;81;21637;-61
2021/11/30 09:47:08;;;;;;;3.60;3.10;;;;;;;13.12;54.22;97651.22;1753705;80;21102;-60
2021/11/30 09:49:35;;;;;;;4.10;2.90;;;;;;;13.12;54.54;97656.55;1762469;79;21046;-59
2021/11/30 09:52:01;;;;;;;4.70;3.20;;;;;;;13.11;54.62;97660.24;1756341;80;21615;-60
2021/11/30 09:54:28;;;;;;;4.85;2.55;;;;;;;13.11;54.60;97654.91;1745982;80;21081;-59
2021/11/30 09:56:54;;;;;;;4.20;3.00;;;;;;;13.12;54.54;97659.74;1763359;80;21032;-60
2021/11/30 09:59:21;;;;;;;3.83;2.95;;;;;;;13.12;54.43;97661.08;1757670;81;21558;-60
2021/11/30 10:01:47;;;;;;;3.55;2.87;;;;;;;13.11;54.33;97645.58;1758379;81;21369;-60
2021/11/30 10:04:14;;;;;;;3.00;2.52;;;;;;;13.09;54.26;97651.67;1756828;79;21046;-60
2021/11/30 10:06:41;;;;;;;3.40;2.50;;;;;;;13.09;54.19;97642.34;1757088;81;21019;-60
2021/11/30 10:09:21;;;;;;;3.90;2.98;;;;;;;13.09;54.10;97650.88;1759990;80;21086;-60
2021/11/30 10:12:06;;;;;;;4.05;2.87;;;;;;;13.08;54.04;97652.73;1755568;81;21062;-60
2021/11/30 10:14:38;;;;;;;3.47;2.90;;;;;;;13.07;53.99;97644.44;1751481;79;21111;-60
2021/11/30 10:17:11;;;;;;;6.28;2.90;;;;;;;13.07;53.96;97656.43;1759931;79;21115;-59
2021/11/30 10:19:41;;;;;;;4.40;2.95;;;;;;;13.05;53.95;97666.52;1762426;80;21058;-61
2021/11/30 10:22:08;;;;;;;3.70;2.70;;;;;;;13.05;53.94;97651.86;1756153;80;21051;-61
2021/11/30 10:24:35;;;;;;;3.65;2.70;;;;;;;13.05;53.92;97657.72;1749451;80;21085;-61
2021/11/30 10:27:02;;;;;;;3.52;2.60;;;;;;;13.05;53.91;97665.19;1761062;81;21131;-61
2021/11/30 10:29:30;;;;;;;3.85;2.87;;;;;;;13.05;53.88;97668.38;1762883;79;21068;-60
2021/11/30 10:31:57;;;;;;;4.03;2.20;;;;;;;13.05;53.84;97617.73;1750347;79;21024;-60
2021/11/30 10:34:28;;;;;;;3.10;2.55;;;;;;;13.04;53.85;97663.58;1750314;80;21028;-59
2021/11/30 10:36:59;;;;;;;4.50;2.67;;;;;;;13.05;53.82;97667.05;1753536;80;21086;-60
2021/11/30 10:39:29;;;;;;;2.58;2.37;;;;;;;13.05;53.79;97669.19;1749605;81;21110;-60
2021/11/30 10:42:17;;;;;;;3.15;2.58;;;;;;;13.05;53.78;97673.72;1765221;80;21069;-61
2021/11/30 10:44:50;;;;;;;2.40;2.20;;;;;;;13.04;53.73;97672.08;1702700;83;21073;-60
2021/11/30 10:47:25;;;;;;;;;;;;;;;13.03;53.69;97675.27;1792753;79;21085;-60
2021/11/30 10:50:11;;;;;;;2.50;2.27;;;;;;;13.02;53.63;97659.02;1803991;79;20230;-60
2021/11/30 10:52:41;;;;;;;3.37;2.42;;;;;;;12.98;53.66;97689.84;1816816;78;21166;-61
2021/11/30 10:55:17;;;;;;;2.87;2.25;;;;;;;12.96;53.69;97682.58;1824368;78;21049;-60
2021/11/30 10:57:46;;;;;;;3.05;2.30;;;;;;;12.96;53.69;97690.57;1822250;77;21093;-59
2021/11/30 11:00:34;;;;;;;3.72;2.47;;;;;;;12.95;53.71;97688.44;1815496;78;21104;-60
2021/11/30 11:05:42;;;;;;;5.03;2.65;;;;;;;12.96;53.66;97687.91;1825332;78;21146;-59
2021/11/30 11:08:17;;;;;;;5.12;2.35;;;;;;;12.91;53.67;97667.30;1819626;78;20997;-60
2021/11/30 11:10:50;;;;;;;4.45;2.83;;;;;;;12.90;53.60;97687.52;1821985;78;21034;-61
2021/11/30 11:13:25;;;;;;;4.95;2.22;;;;;;;12.90;53.55;97725.66;1818590;78;21024;-63
2021/11/30 11:16:03;;;;;;;4.55;2.33;;;;;;;12.91;53.74;97725.93;1815334;78;21037;-64
2021/11/30 11:18:37;;;;;;;2.77;2.12;;;;;;;12.91;53.88;97722.46;1812387;78;21081;-64
2021/11/30 11:21:20;;;;;;;2.87;2.50;;;;;;;12.91;53.90;97720.59;1820275;77;20951;-62
2021/11/30 11:24:09;;;;;;;3.50;2.30;;;;;;;12.91;53.91;97730.45;1819174;77;21541;-64
2021/11/30 11:26:46;;;;;;;3.40;2.17;;;;;;;12.89;53.91;97730.69;1808768;77;21017;-62
2021/11/30 11:29:26;;;;;;;3.92;2.22;;;;;;;12.89;53.90;97723.22;1827728;77;21271;-62
2021/11/30 11:32:05;;;;;;;2.87;2.55;;;;;;;12.89;53.87;97728.02;1795886;77;21145;-63
2021/11/30 11:34:34;;;;;;;3.25;2.15;;;;;;;12.89;53.85;97725.88;1811173;77;21021;-66
2021/11/30 11:37:03;;;;;;;4.08;2.22;;;;;;;12.86;53.85;97729.80;1821956;78;21013;-62
2021/11/30 11:39:32;;;;;;;3.37;2.15;;;;;;;12.85;53.82;97736.72;1812537;78;21463;-63
2021/11/30 11:42:05;;;;;;;3.27;2.30;;;;;;;12.84;53.80;97721.23;1819438;78;21718;-62
2021/11/30 11:44:32;;;;;;;;;;;;;;;12.84;53.74;97731.89;1816855;78;21165;-62
2021/11/30 11:47:08;;;;;;;2.92;2.33;;;;;;;12.84;53.69;97732.41;1822519;78;20174;-60
2021/11/30 11:49:42;;;;;;;3.10;2.22;;;;;;;12.79;53.74;97735.26;1820364;78;21069;-61
2021/11/30 11:52:28;;;;;;;1.95;1.80;;;;;;;12.77;53.70;97738.67;1822100;77;21065;-61